Bay Pines, Florida
Current Conditions -  °F | °C
As of 10:53 AM on Thursday 30 Oct 2014 (Local Time) from KPIE Reporting Station
Few Clouds Few Clouds  
Wind Chill: 78°   Ceiling: Unl
Heat Index: 80°   Visibility: 10mi
Dew Point: 66°   Wind: 5mph
Humidity: 66%   Direction: 60°ENE
Pressure: 29.99"   Gusts: NA
Location:  27.82°N, 82.78°W
Report Text: KPIE 301453Z 06004KT 10SM FEW120 26/19 A2999 RMK AO2 SLP154 T02560189 51005
Loading
Personal Weather Stations






























Interactive Weather Map
Tropical Storm Tracking
New forecast layout! Learn more

10-Day Weather Forecast

Advertisements
Track Severe Weather on mobile